createdAt,value
2017-08-26T00:00:20.610Z,0
2017-08-26T00:01:20.952Z,0
2017-08-26T00:02:21.234Z,0
2017-08-26T00:03:20.915Z,0
2017-08-26T00:04:20.254Z,0
2017-08-26T00:05:21.215Z,0
2017-08-26T00:06:20.871Z,0
2017-08-26T00:07:20.870Z,0
2017-08-26T00:08:20.859Z,0
2017-08-26T00:09:20.854Z,0
2017-08-26T00:10:21.170Z,0
2017-08-26T00:11:21.150Z,0
2017-08-26T00:12:20.185Z,0
2017-08-26T00:13:20.810Z,0
2017-08-26T00:14:20.806Z,0
2017-08-26T00:15:20.473Z,0
2017-08-26T00:16:20.791Z,0
2017-08-26T00:17:20.460Z,0
2017-08-26T00:18:20.441Z,0
2017-08-26T00:19:20.761Z,0
2017-08-26T00:20:20.441Z,0
2017-08-26T00:21:20.738Z,0
2017-08-26T00:22:20.724Z,0
2017-08-26T00:23:20.722Z,0
2017-08-26T00:24:20.391Z,0
2017-08-26T00:25:21.428Z,0
2017-08-26T00:26:21.050Z,0
2017-08-26T00:27:20.065Z,0
2017-08-26T00:28:20.103Z,0
2017-08-26T00:29:20.372Z,0
2017-08-26T00:30:20.978Z,0
2017-08-26T00:31:20.976Z,0
2017-08-26T00:32:20.632Z,0
2017-08-26T00:33:19.982Z,0
2017-08-26T00:34:20.939Z,0
2017-08-26T00:35:20.612Z,0
2017-08-26T00:36:20.595Z,0
2017-08-26T00:37:20.593Z,0
2017-08-26T00:38:20.301Z,0
2017-08-26T00:39:20.571Z,0
2017-08-26T00:40:20.886Z,0
2017-08-26T00:41:20.877Z,0
2017-08-26T00:42:19.903Z,0
2017-08-26T00:43:20.535Z,0
2017-08-26T00:44:20.851Z,0
2017-08-26T00:45:20.196Z,0
2017-08-26T00:46:20.506Z,0
2017-08-26T00:47:20.174Z,0
2017-08-26T00:48:20.497Z,0
2017-08-26T00:49:21.122Z,0
2017-08-26T00:50:20.147Z,0
2017-08-26T00:51:20.471Z,0
2017-08-26T00:52:20.455Z,0
2017-08-26T00:53:19.797Z,0
2017-08-26T00:54:20.749Z,0
2017-08-26T00:55:20.095Z,0
2017-08-26T00:56:20.412Z,0
2017-08-26T00:57:21.039Z,0
2017-08-26T00:58:20.736Z,0
2017-08-26T00:59:20.069Z,0
2017-08-26T01:00:20.369Z,0
2017-08-26T01:01:20.687Z,0
2017-08-26T01:02:20.370Z,0
2017-08-26T01:03:20.059Z,0
2017-08-26T01:04:20.017Z,0
2017-08-26T01:05:20.649Z,0
2017-08-26T01:06:20.631Z,0
2017-08-26T01:07:20.640Z,0
2017-08-26T01:08:19.663Z,0
2017-08-26T01:09:20.612Z,0
2017-08-26T01:10:19.969Z,0
2017-08-26T01:11:19.971Z,0
2017-08-26T01:12:19.948Z,0
2017-08-26T01:13:20.579Z,0
2017-08-26T01:14:19.918Z,0
2017-08-26T01:15:20.235Z,0
2017-08-26T01:16:20.298Z,0
2017-08-26T01:17:20.213Z,0
2017-08-26T01:18:20.536Z,0
2017-08-26T01:19:20.191Z,0
2017-08-26T01:20:20.192Z,0
2017-08-26T01:21:20.497Z,0
2017-08-26T01:22:20.177Z,0
2017-08-26T01:23:20.157Z,0
2017-08-26T01:24:20.465Z,0
2017-08-26T01:25:20.490Z,0
2017-08-26T01:26:20.761Z,0
2017-08-26T01:27:20.108Z,0
2017-08-26T01:28:19.788Z,0
2017-08-26T01:29:20.442Z,0
2017-08-26T01:30:19.765Z,0
2017-08-26T01:31:20.714Z,0
2017-08-26T01:32:20.388Z,0
2017-08-26T01:33:20.373Z,0
2017-08-26T01:34:20.694Z,0
2017-08-26T01:35:20.043Z,0
2017-08-26T01:36:19.388Z,0
2017-08-26T01:37:20.021Z,0
2017-08-26T01:38:20.338Z,0
2017-08-26T01:39:20.636Z,0
2017-08-26T01:40:19.664Z,0
2017-08-26T01:41:19.656Z,0
2017-08-26T01:42:19.973Z,0
2017-08-26T01:43:20.301Z,0
2017-08-26T01:44:19.947Z,0
2017-08-26T01:45:19.943Z,0
2017-08-26T01:46:19.605Z,0
2017-08-26T01:47:20.240Z,0
2017-08-26T01:48:20.230Z,0
2017-08-26T01:49:20.222Z,0
2017-08-26T01:50:19.887Z,0
2017-08-26T01:51:19.877Z,0
2017-08-26T01:52:19.874Z,0
2017-08-26T01:53:19.860Z,0
2017-08-26T01:54:19.206Z,0
2017-08-26T01:55:19.837Z,0
2017-08-26T01:56:19.829Z,0
2017-08-26T01:57:19.815Z,0
2017-08-26T01:58:20.133Z,0
2017-08-26T01:59:19.679Z,0
2017-08-26T02:00:20.451Z,0
2017-08-26T02:01:19.777Z,0
2017-08-26T02:02:20.086Z,0
2017-08-26T02:03:19.112Z,0
2017-08-26T02:04:20.076Z,0
2017-08-26T02:05:20.054Z,0
2017-08-26T02:06:19.730Z,0
2017-08-26T02:07:19.722Z,0
2017-08-26T02:08:20.035Z,0
2017-08-26T02:09:20.018Z,0
2017-08-26T02:10:20.003Z,0
2017-08-26T02:11:19.990Z,0
2017-08-26T02:12:19.366Z,0
2017-08-26T02:13:19.657Z,0
2017-08-26T02:14:19.641Z,0
2017-08-26T02:15:19.653Z,0
2017-08-26T02:16:19.950Z,0
2017-08-26T02:17:19.639Z,0
2017-08-26T02:18:19.924Z,0
2017-08-26T02:19:19.279Z,0
2017-08-26T02:20:19.258Z,0
2017-08-26T02:21:19.954Z,0
2017-08-26T02:22:19.243Z,0
2017-08-26T02:23:19.867Z,0
2017-08-26T02:24:19.871Z,0
2017-08-26T02:25:19.567Z,0
2017-08-26T02:26:19.845Z,0
2017-08-26T02:27:18.874Z,0
2017-08-26T02:28:19.821Z,0
2017-08-26T02:29:20.134Z,0
2017-08-26T02:30:19.155Z,0
2017-08-26T02:31:19.149Z,0
2017-08-26T02:32:19.797Z,0
2017-08-26T02:33:18.808Z,0
2017-08-26T02:34:19.792Z,0
2017-08-26T02:35:19.770Z,0
2017-08-26T02:36:19.747Z,0
2017-08-26T02:37:20.049Z,0
2017-08-26T02:38:20.041Z,0
2017-08-26T02:39:19.714Z,0
2017-08-26T02:40:20.020Z,0
2017-08-26T02:41:19.695Z,0
2017-08-26T02:42:18.715Z,0
2017-08-26T02:43:19.667Z,0
2017-08-26T02:44:19.344Z,0
2017-08-26T02:45:19.316Z,0
2017-08-26T02:46:18.986Z,0
2017-08-26T02:47:19.007Z,0
2017-08-26T02:48:19.604Z,0
2017-08-26T02:49:19.280Z,0
2017-08-26T02:50:18.657Z,0
2017-08-26T02:51:18.941Z,0
2017-08-26T02:52:19.562Z,0
2017-08-26T02:53:19.244Z,0
2017-08-26T02:54:19.227Z,0
2017-08-26T02:55:18.888Z,0
2017-08-26T02:56:19.857Z,0
2017-08-26T02:57:19.193Z,0
2017-08-26T02:58:19.507Z,0
2017-08-26T02:59:19.173Z,0
2017-08-26T03:00:19.163Z,0
2017-08-26T03:01:18.827Z,0
2017-08-26T03:02:18.821Z,0
2017-08-26T03:03:19.450Z,0
2017-08-26T03:04:19.442Z,0
2017-08-26T03:05:18.780Z,0
2017-08-26T03:06:18.776Z,0
2017-08-26T03:07:19.088Z,0
2017-08-26T03:08:18.753Z,0
2017-08-26T03:09:19.063Z,0
2017-08-26T03:10:18.737Z,0
2017-08-26T03:11:19.044Z,0
2017-08-26T03:12:19.030Z,0
2017-08-26T03:13:19.346Z,0
2017-08-26T03:14:19.332Z,0
2017-08-26T03:15:18.998Z,0
2017-08-26T03:16:18.996Z,0
2017-08-26T03:17:19.647Z,0
2017-08-26T03:18:18.981Z,0
2017-08-26T03:19:18.639Z,0
2017-08-26T03:20:18.956Z,0
2017-08-26T03:21:18.297Z,0
2017-08-26T03:22:18.285Z,0
2017-08-26T03:23:18.594Z,0
2017-08-26T03:24:18.585Z,0
2017-08-26T03:25:18.896Z,0
2017-08-26T03:26:18.879Z,0
2017-08-26T03:27:19.519Z,0
2017-08-26T03:28:19.512Z,0
2017-08-26T03:29:19.191Z,0
2017-08-26T03:30:18.528Z,0
2017-08-26T03:31:19.152Z,0
2017-08-26T03:32:19.150Z,0
2017-08-26T03:33:19.129Z,0
2017-08-26T03:34:19.119Z,0
2017-08-26T03:35:18.791Z,0
2017-08-26T03:36:19.438Z,0
2017-08-26T03:37:19.105Z,0
2017-08-26T03:38:19.086Z,0
2017-08-26T03:39:18.758Z,0
2017-08-26T03:40:18.417Z,0
2017-08-26T03:41:18.411Z,0
2017-08-26T03:42:18.406Z,0
2017-08-26T03:43:18.709Z,0
2017-08-26T03:44:19.026Z,0
2017-08-26T03:45:18.375Z,0
2017-08-26T03:46:18.679Z,0
2017-08-26T03:47:18.995Z,0
2017-08-26T03:48:18.339Z,0
2017-08-26T03:49:18.972Z,0
2017-08-26T03:50:18.963Z,0
2017-08-26T03:51:18.309Z,0
2017-08-26T03:52:18.299Z,0
2017-08-26T03:53:18.610Z,0
2017-08-26T03:54:18.917Z,0
2017-08-26T03:55:18.586Z,0
2017-08-26T03:56:18.263Z,0
2017-08-26T03:57:18.892Z,0
2017-08-26T03:58:18.240Z,0
2017-08-26T03:59:18.748Z,0
2017-08-26T04:00:18.537Z,0
2017-08-26T04:01:19.158Z,0
2017-08-26T04:02:18.839Z,0
2017-08-26T04:03:18.506Z,0
2017-08-26T04:04:18.831Z,0
2017-08-26T04:05:18.166Z,0
2017-08-26T04:06:18.795Z,0
2017-08-26T04:07:18.798Z,0
2017-08-26T04:08:18.467Z,0
2017-08-26T04:09:18.762Z,0
2017-08-26T04:10:18.760Z,0
2017-08-26T04:11:18.430Z,0
2017-08-26T04:12:18.742Z,0
2017-08-26T04:13:18.730Z,0
2017-08-26T04:14:18.394Z,0
2017-08-26T04:15:18.709Z,0
2017-08-26T04:16:19.064Z,0
2017-08-26T04:17:19.035Z,0
2017-08-26T04:18:18.368Z,0
2017-08-26T04:19:18.667Z,0
2017-08-26T04:20:18.654Z,0
2017-08-26T04:21:18.324Z,0
2017-08-26T04:22:17.995Z,0
2017-08-26T04:23:18.623Z,0
2017-08-26T04:24:18.291Z,0
2017-08-26T04:25:17.967Z,0
2017-08-26T04:26:18.592Z,0
2017-08-26T04:27:18.271Z,0
2017-08-26T04:28:18.266Z,0
2017-08-26T04:29:18.240Z,0
2017-08-26T04:30:17.589Z,0
2017-08-26T04:31:18.220Z,0
2017-08-26T04:32:18.208Z,0
2017-08-26T04:33:17.876Z,0
2017-08-26T04:34:18.508Z,0
2017-08-26T04:35:18.497Z,0
2017-08-26T04:36:18.164Z,0
2017-08-26T04:37:18.179Z,0
2017-08-26T04:38:18.146Z,0
2017-08-26T04:39:18.139Z,0
2017-08-26T04:40:18.454Z,0
2017-08-26T04:41:18.434Z,0
2017-08-26T04:42:18.425Z,0
2017-08-26T04:43:17.782Z,0
2017-08-26T04:44:18.440Z,0
2017-08-26T04:45:18.074Z,0
2017-08-26T04:46:18.393Z,0
2017-08-26T04:47:18.384Z,0
2017-08-26T04:48:18.692Z,0
2017-08-26T04:49:17.715Z,0
2017-08-26T04:50:17.701Z,0
2017-08-26T04:51:17.692Z,0
2017-08-26T04:52:18.004Z,5
2017-08-26T04:53:18.317Z,5
2017-08-26T04:54:18.310Z,5
2017-08-26T04:55:17.332Z,5
2017-08-26T04:56:18.609Z,5
2017-08-26T04:57:17.954Z,5
2017-08-26T04:58:17.943Z,5
2017-08-26T04:59:18.249Z,5
2017-08-26T05:00:17.930Z,5
2017-08-26T05:01:17.942Z,5
2017-08-26T05:02:17.923Z,5
2017-08-26T05:03:17.901Z,5
2017-08-26T05:04:17.887Z,5
2017-08-26T05:05:17.552Z,10
2017-08-26T05:06:17.542Z,10
2017-08-26T05:07:18.165Z,10
2017-08-26T05:08:18.160Z,10
2017-08-26T05:09:17.185Z,10
2017-08-26T05:10:17.819Z,10
2017-08-26T05:11:18.143Z,10
2017-08-26T05:12:17.798Z,10
2017-08-26T05:13:18.107Z,10
2017-08-26T05:14:17.458Z,10
2017-08-26T05:15:17.774Z,10
2017-08-26T05:16:18.081Z,15
2017-08-26T05:17:18.095Z,15
2017-08-26T05:18:17.741Z,15
2017-08-26T05:19:17.406Z,15
2017-08-26T05:20:17.720Z,15
2017-08-26T05:21:18.030Z,15
2017-08-26T05:22:17.381Z,20
2017-08-26T05:23:18.008Z,20
2017-08-26T05:24:17.355Z,20
2017-08-26T05:25:17.994Z,20
2017-08-26T05:26:17.342Z,20
2017-08-26T05:27:17.655Z,20
2017-08-26T05:28:17.641Z,20
2017-08-26T05:29:17.309Z,25
2017-08-26T05:30:17.295Z,25
2017-08-26T05:31:17.927Z,25
2017-08-26T05:32:17.611Z,25
2017-08-26T05:33:16.947Z,25
2017-08-26T05:34:17.275Z,25
2017-08-26T05:35:16.936Z,25
2017-08-26T05:36:17.239Z,25
2017-08-26T05:37:17.233Z,25
2017-08-26T05:38:17.863Z,25
2017-08-26T05:39:17.210Z,25
2017-08-26T05:40:17.526Z,30
2017-08-26T05:41:17.523Z,30
2017-08-26T05:42:16.870Z,30
2017-08-26T05:43:17.495Z,35
2017-08-26T05:44:17.164Z,35
2017-08-26T05:45:17.787Z,35
2017-08-26T05:46:17.141Z,40
2017-08-26T05:47:17.772Z,40
2017-08-26T05:48:17.116Z,40
2017-08-26T05:49:17.756Z,40
2017-08-26T05:50:17.135Z,40
2017-08-26T05:51:17.418Z,40
2017-08-26T05:52:17.723Z,45
2017-08-26T05:53:17.405Z,45
2017-08-26T05:54:16.735Z,45
2017-08-26T05:55:17.072Z,45
2017-08-26T05:56:17.702Z,45
2017-08-26T05:57:17.028Z,40
2017-08-26T05:58:17.020Z,40
2017-08-26T05:59:18.175Z,40
2017-08-26T06:00:17.648Z,40
2017-08-26T06:01:16.671Z,45
2017-08-26T06:02:17.303Z,45
2017-08-26T06:03:16.658Z,45
2017-08-26T06:04:17.937Z,45
2017-08-26T06:05:17.600Z,50
2017-08-26T06:06:17.271Z,50
2017-08-26T06:07:17.581Z,50
2017-08-26T06:08:17.566Z,50
2017-08-26T06:09:17.562Z,50
2017-08-26T06:10:16.911Z,50
2017-08-26T06:11:17.534Z,55
2017-08-26T06:12:17.843Z,55
2017-08-26T06:13:17.194Z,55
2017-08-26T06:14:17.506Z,60
2017-08-26T06:15:17.176Z,65
2017-08-26T06:16:17.492Z,70
2017-08-26T06:17:17.159Z,75
2017-08-26T06:18:16.820Z,70
2017-08-26T06:19:17.140Z,70
2017-08-26T06:20:17.130Z,70
2017-08-26T06:21:17.121Z,70
2017-08-26T06:22:17.757Z,80
2017-08-26T06:23:17.116Z,75
2017-08-26T06:24:16.777Z,75
2017-08-26T06:25:17.132Z,75
2017-08-26T06:26:16.750Z,75
2017-08-26T06:27:17.390Z,75
2017-08-26T06:28:16.737Z,75
2017-08-26T06:29:17.385Z,75
2017-08-26T06:30:17.358Z,75
2017-08-26T06:31:17.348Z,75
2017-08-26T06:32:17.022Z,80
2017-08-26T06:33:16.692Z,80
2017-08-26T06:34:16.997Z,75
2017-08-26T06:35:16.717Z,75
2017-08-26T06:36:16.663Z,75
2017-08-26T06:37:16.331Z,75
2017-08-26T06:38:16.964Z,75
2017-08-26T06:39:16.962Z,80
2017-08-26T06:40:16.627Z,80
2017-08-26T06:41:16.615Z,85
2017-08-26T06:42:16.924Z,90
2017-08-26T06:43:16.919Z,90
2017-08-26T06:44:16.907Z,90
2017-08-26T06:45:16.583Z,95
2017-08-26T06:46:16.894Z,95
2017-08-26T06:47:16.883Z,100
2017-08-26T06:48:17.189Z,100
2017-08-26T06:49:16.220Z,100
2017-08-26T06:50:17.184Z,95
2017-08-26T06:51:16.526Z,95
2017-08-26T06:52:16.519Z,100
2017-08-26T06:53:17.149Z,100
2017-08-26T06:54:17.142Z,100
2017-08-26T06:55:17.454Z,100
2017-08-26T06:56:16.804Z,100
2017-08-26T06:57:16.800Z,110
2017-08-26T06:58:16.791Z,110
2017-08-26T06:59:16.516Z,105
2017-08-26T07:00:17.095Z,110
2017-08-26T07:01:17.089Z,115
2017-08-26T07:02:16.763Z,120
2017-08-26T07:03:17.070Z,125
2017-08-26T07:04:17.057Z,120
2017-08-26T07:05:17.069Z,120
2017-08-26T07:06:16.730Z,125
2017-08-26T07:07:16.715Z,135
2017-08-26T07:08:16.055Z,130
2017-08-26T07:09:16.701Z,125
2017-08-26T07:10:16.684Z,125
2017-08-26T07:11:16.364Z,130
2017-08-26T07:12:16.351Z,140
2017-08-26T07:13:16.659Z,150
2017-08-26T07:14:16.647Z,150
2017-08-26T07:15:16.324Z,150
2017-08-26T07:16:17.278Z,150
2017-08-26T07:17:15.985Z,150
2017-08-26T07:18:15.981Z,155
2017-08-26T07:19:16.291Z,160
2017-08-26T07:20:16.281Z,165
2017-08-26T07:21:16.914Z,170
2017-08-26T07:22:16.905Z,170
2017-08-26T07:23:16.894Z,170
2017-08-26T07:24:16.242Z,170
2017-08-26T07:25:16.885Z,165
2017-08-26T07:26:16.234Z,170
2017-08-26T07:27:16.870Z,170
2017-08-26T07:28:16.214Z,170
2017-08-26T07:29:16.525Z,170
2017-08-26T07:30:15.877Z,180
2017-08-26T07:31:16.830Z,190
2017-08-26T07:32:16.188Z,195
2017-08-26T07:33:16.179Z,195
2017-08-26T07:34:16.163Z,195
2017-08-26T07:35:16.482Z,195
2017-08-26T07:36:16.470Z,195
2017-08-26T07:37:16.777Z,190
2017-08-26T07:38:16.779Z,195
2017-08-26T07:39:16.450Z,200
2017-08-26T07:40:16.446Z,200
2017-08-26T07:41:16.433Z,200
2017-08-26T07:42:16.742Z,210
2017-08-26T07:43:16.418Z,215
2017-08-26T07:44:16.734Z,210
2017-08-26T07:45:16.400Z,200
2017-08-26T07:46:16.404Z,200
2017-08-26T07:47:16.392Z,200
2017-08-26T07:48:17.036Z,195
2017-08-26T07:49:15.735Z,200
2017-08-26T07:50:16.694Z,195
2017-08-26T07:51:16.373Z,190
2017-08-26T07:52:16.382Z,195
2017-08-26T07:53:16.028Z,200
2017-08-26T07:54:16.332Z,200
2017-08-26T07:55:16.654Z,205
2017-08-26T07:56:16.647Z,205
2017-08-26T07:57:16.958Z,200
2017-08-26T07:58:15.988Z,195
2017-08-26T07:59:17.152Z,210
2017-08-26T08:00:16.665Z,215
2017-08-26T08:01:16.288Z,215
2017-08-26T08:02:16.282Z,215
2017-08-26T08:03:15.955Z,210
2017-08-26T08:04:15.947Z,210
2017-08-26T08:05:16.581Z,215
2017-08-26T08:06:16.576Z,220
2017-08-26T08:07:16.252Z,215
2017-08-26T08:08:16.246Z,225
2017-08-26T08:09:16.236Z,235
2017-08-26T08:10:15.939Z,245
2017-08-26T08:11:16.868Z,245
2017-08-26T08:12:15.890Z,245
2017-08-26T08:13:16.532Z,230
2017-08-26T08:14:16.194Z,235
2017-08-26T08:15:16.833Z,235
2017-08-26T08:16:16.511Z,230
2017-08-26T08:17:16.497Z,230
2017-08-26T08:18:15.527Z,235
2017-08-26T08:19:15.847Z,240
2017-08-26T08:20:16.474Z,245
2017-08-26T08:21:15.827Z,255
2017-08-26T08:22:16.153Z,245
2017-08-26T08:23:16.462Z,245
2017-08-26T08:24:15.810Z,245
2017-08-26T08:25:16.769Z,245
2017-08-26T08:26:15.798Z,275
2017-08-26T08:27:16.778Z,265
2017-08-26T08:28:16.119Z,325
2017-08-26T08:29:16.105Z,365
2017-08-26T08:30:16.446Z,370
2017-08-26T08:31:16.091Z,270
2017-08-26T08:32:16.083Z,250
2017-08-26T08:33:16.395Z,240
2017-08-26T08:34:16.409Z,240
2017-08-26T08:35:16.392Z,240
2017-08-26T08:36:16.058Z,240
2017-08-26T08:37:15.736Z,245
2017-08-26T08:38:16.052Z,245
2017-08-26T08:39:16.041Z,250
2017-08-26T08:40:16.672Z,250
2017-08-26T08:41:16.029Z,250
2017-08-26T08:42:15.698Z,250
2017-08-26T08:43:16.337Z,255
2017-08-26T08:44:16.004Z,255
2017-08-26T08:45:15.687Z,250
2017-08-26T08:46:16.321Z,245
2017-08-26T08:47:15.995Z,245
2017-08-26T08:48:15.981Z,250
2017-08-26T08:49:16.304Z,245
2017-08-26T08:50:15.998Z,260
2017-08-26T08:51:15.645Z,260
2017-08-26T08:52:15.656Z,270
2017-08-26T08:53:15.642Z,265
2017-08-26T08:54:15.958Z,265
2017-08-26T08:55:16.280Z,265
2017-08-26T08:56:16.258Z,270
2017-08-26T08:57:15.292Z,270
2017-08-26T08:58:15.607Z,275
2017-08-26T08:59:16.239Z,285
2017-08-26T09:00:16.556Z,290
2017-08-26T09:01:16.230Z,295
2017-08-26T09:02:15.574Z,295
2017-08-26T09:03:15.574Z,300
2017-08-26T09:04:15.562Z,305
2017-08-26T09:05:15.879Z,310
2017-08-26T09:06:16.523Z,300
2017-08-26T09:07:15.869Z,300
2017-08-26T09:08:15.539Z,280
2017-08-26T09:09:15.211Z,285
2017-08-26T09:10:15.848Z,275
2017-08-26T09:11:15.258Z,305
2017-08-26T09:12:15.198Z,320
2017-08-26T09:13:16.165Z,340
2017-08-26T09:14:15.508Z,340
2017-08-26T09:15:16.147Z,350
2017-08-26T09:16:16.140Z,340
2017-08-26T09:17:15.490Z,315
2017-08-26T09:18:15.831Z,290
2017-08-26T09:19:15.476Z,295
2017-08-26T09:20:16.130Z,310
2017-08-26T09:21:15.789Z,315
2017-08-26T09:22:15.459Z,330
2017-08-26T09:23:15.777Z,355
2017-08-26T09:24:16.090Z,355
2017-08-26T09:25:15.766Z,350
2017-08-26T09:26:15.127Z,345
2017-08-26T09:27:15.772Z,325
2017-08-26T09:28:15.755Z,320
2017-08-26T09:29:16.075Z,320
2017-08-26T09:30:16.385Z,315
2017-08-26T09:31:15.411Z,310
2017-08-26T09:32:15.406Z,315
2017-08-26T09:33:16.046Z,320
2017-08-26T09:34:15.397Z,325
2017-08-26T09:35:15.722Z,340
2017-08-26T09:36:15.712Z,335
2017-08-26T09:37:15.706Z,350
2017-08-26T09:38:16.021Z,370
2017-08-26T09:39:15.704Z,400
2017-08-26T09:40:15.692Z,425
2017-08-26T09:41:15.038Z,435
2017-08-26T09:42:15.673Z,435
2017-08-26T09:43:16.314Z,440
2017-08-26T09:44:15.996Z,450
2017-08-26T09:45:15.340Z,445
2017-08-26T09:46:16.296Z,435
2017-08-26T09:47:15.339Z,425
2017-08-26T09:48:15.360Z,415
2017-08-26T09:49:15.651Z,405
2017-08-26T09:50:16.276Z,400
2017-08-26T09:51:16.275Z,385
2017-08-26T09:52:16.273Z,410
2017-08-26T09:53:14.985Z,440
2017-08-26T09:54:15.624Z,445
2017-08-26T09:55:15.633Z,450
2017-08-26T09:56:15.939Z,455
2017-08-26T09:57:15.303Z,430
2017-08-26T09:58:15.951Z,420
2017-08-26T09:59:16.056Z,425
2017-08-26T10:00:15.279Z,420
2017-08-26T10:01:16.257Z,400
2017-08-26T10:02:16.272Z,370
2017-08-26T10:03:15.581Z,365
2017-08-26T10:04:15.582Z,365
2017-08-26T10:05:15.575Z,355
2017-08-26T10:06:15.568Z,335
2017-08-26T10:07:14.925Z,325
2017-08-26T10:08:15.560Z,305
2017-08-26T10:09:15.562Z,300
2017-08-26T10:10:15.568Z,300
2017-08-26T10:11:14.903Z,295
2017-08-26T10:12:15.868Z,275
2017-08-26T10:13:15.532Z,275
2017-08-26T10:14:15.218Z,275
2017-08-26T10:15:15.534Z,285
2017-08-26T10:16:15.847Z,285
2017-08-26T10:17:15.516Z,275
2017-08-26T10:18:14.876Z,265
2017-08-26T10:19:15.512Z,255
2017-08-26T10:20:15.503Z,245
2017-08-26T10:21:15.830Z,235
2017-08-26T10:22:16.133Z,225
2017-08-26T10:23:15.488Z,210
2017-08-26T10:24:14.851Z,195
2017-08-26T10:25:15.480Z,180
2017-08-26T10:26:15.479Z,180
2017-08-26T10:27:15.484Z,185
2017-08-26T10:28:15.153Z,175
2017-08-26T10:29:15.784Z,165
2017-08-26T10:30:15.462Z,170
2017-08-26T10:31:15.131Z,175
2017-08-26T10:32:15.452Z,165
2017-08-26T10:33:15.437Z,165
2017-08-26T10:34:15.449Z,185
2017-08-26T10:35:15.432Z,180
2017-08-26T10:36:15.109Z,155
2017-08-26T10:37:15.752Z,135
2017-08-26T10:38:16.081Z,130
2017-08-26T10:39:15.412Z,135
2017-08-26T10:40:15.412Z,145
2017-08-26T10:41:15.082Z,150
2017-08-26T10:42:15.394Z,150
2017-08-26T10:43:15.074Z,150
2017-08-26T10:44:15.704Z,155
2017-08-26T10:45:15.700Z,150
2017-08-26T10:46:15.698Z,145
2017-08-26T10:47:15.367Z,150
2017-08-26T10:48:15.367Z,170
2017-08-26T10:49:15.036Z,175
2017-08-26T10:50:15.380Z,165
2017-08-26T10:51:15.345Z,145
2017-08-26T10:52:14.695Z,125
2017-08-26T10:53:15.977Z,115
2017-08-26T10:54:15.027Z,110
2017-08-26T10:55:15.967Z,110
2017-08-26T10:56:15.324Z,110
2017-08-26T10:57:15.313Z,115
2017-08-26T10:58:15.303Z,125
2017-08-26T10:59:14.993Z,155
2017-08-26T11:00:15.293Z,180
2017-08-26T11:01:14.970Z,210
2017-08-26T11:02:14.965Z,240
2017-08-26T11:03:15.273Z,260
2017-08-26T11:04:15.600Z,265
2017-08-26T11:05:14.948Z,255
2017-08-26T11:06:15.592Z,245
2017-08-26T11:07:15.585Z,245
2017-08-26T11:08:14.934Z,255
2017-08-26T11:09:15.563Z,340
2017-08-26T11:10:15.238Z,345
2017-08-26T11:11:15.236Z,335
2017-08-26T11:12:14.584Z,390
2017-08-26T11:13:15.550Z,355
2017-08-26T11:14:15.219Z,355
2017-08-26T11:15:14.894Z,510
2017-08-26T11:16:15.205Z,820
2017-08-26T11:17:15.840Z,940
2017-08-26T11:18:15.188Z,940
2017-08-26T11:19:15.195Z,775
2017-08-26T11:20:14.872Z,715
2017-08-26T11:21:15.517Z,775
2017-08-26T11:22:15.189Z,1215
2017-08-26T11:23:15.499Z,980
2017-08-26T11:24:15.185Z,725
2017-08-26T11:25:15.179Z,620
2017-08-26T11:26:15.184Z,1280
2017-08-26T11:27:15.807Z,1340
2017-08-26T11:28:15.481Z,1225
2017-08-26T11:29:15.482Z,1280
2017-08-26T11:30:15.479Z,1170
2017-08-26T11:31:15.471Z,1120
2017-08-26T11:32:15.153Z,895
2017-08-26T11:33:15.152Z,640
2017-08-26T11:34:15.463Z,655
2017-08-26T11:35:15.468Z,1090
2017-08-26T11:36:15.821Z,660
2017-08-26T11:37:15.138Z,655
2017-08-26T11:38:15.466Z,485
2017-08-26T11:39:15.167Z,500
2017-08-26T11:40:15.139Z,830
2017-08-26T11:41:14.813Z,1085
2017-08-26T11:42:15.457Z,685
2017-08-26T11:43:15.465Z,815
2017-08-26T11:44:15.170Z,1005
2017-08-26T11:45:15.142Z,1155
2017-08-26T11:46:15.146Z,730
2017-08-26T11:47:15.460Z,510
2017-08-26T11:48:15.458Z,425
2017-08-26T11:49:15.131Z,365
2017-08-26T11:50:15.136Z,310
2017-08-26T11:51:15.777Z,280
2017-08-26T11:52:15.455Z,230
2017-08-26T11:53:15.142Z,190
2017-08-26T11:54:15.460Z,160
2017-08-26T11:55:15.140Z,145
2017-08-26T11:56:14.803Z,145
2017-08-26T11:57:15.127Z,155
2017-08-26T11:58:15.124Z,160
2017-08-26T11:59:15.539Z,155
2017-08-26T12:00:15.451Z,160
2017-08-26T12:01:15.760Z,170
2017-08-26T12:02:15.115Z,175
2017-08-26T12:03:14.471Z,185
2017-08-26T12:04:14.796Z,195
2017-08-26T12:05:15.435Z,235
2017-08-26T12:06:15.763Z,255
2017-08-26T12:07:15.452Z,250
2017-08-26T12:08:14.457Z,240
2017-08-26T12:09:15.093Z,245
2017-08-26T12:10:15.095Z,215
2017-08-26T12:11:14.765Z,185
2017-08-26T12:12:15.417Z,160
2017-08-26T12:13:15.417Z,140
2017-08-26T12:14:15.077Z,125
2017-08-26T12:15:15.078Z,115
2017-08-26T12:16:15.071Z,115
2017-08-26T12:17:15.072Z,115
2017-08-26T12:18:15.061Z,115
2017-08-26T12:19:15.061Z,120
2017-08-26T12:20:15.057Z,125
2017-08-26T12:21:15.066Z,140
2017-08-26T12:22:15.375Z,160
2017-08-26T12:23:15.054Z,195
2017-08-26T12:24:15.040Z,245
2017-08-26T12:25:15.365Z,260
2017-08-26T12:26:14.382Z,290
2017-08-26T12:27:15.353Z,320
2017-08-26T12:28:15.358Z,345
2017-08-26T12:29:14.701Z,330
2017-08-26T12:30:14.693Z,320
2017-08-26T12:31:15.328Z,320
2017-08-26T12:32:15.005Z,310
2017-08-26T12:33:14.677Z,325
2017-08-26T12:34:15.056Z,325
2017-08-26T12:35:15.322Z,345
2017-08-26T12:36:14.987Z,415
2017-08-26T12:37:15.301Z,530
2017-08-26T12:38:14.979Z,520
2017-08-26T12:39:14.677Z,410
2017-08-26T12:40:14.994Z,610
2017-08-26T12:41:14.643Z,370
2017-08-26T12:42:15.283Z,365
2017-08-26T12:43:15.283Z,370
2017-08-26T12:44:14.633Z,325
2017-08-26T12:45:14.629Z,300
2017-08-26T12:46:15.284Z,280
2017-08-26T12:47:14.952Z,260
2017-08-26T12:48:14.632Z,250
2017-08-26T12:49:14.988Z,245
2017-08-26T12:50:14.989Z,240
2017-08-26T12:51:14.665Z,235
2017-08-26T12:52:15.000Z,235
2017-08-26T12:53:14.922Z,270
2017-08-26T12:54:15.263Z,320
2017-08-26T12:55:15.235Z,690
2017-08-26T12:56:14.591Z,395
2017-08-26T12:57:15.221Z,360
2017-08-26T12:58:15.291Z,325
2017-08-26T12:59:14.899Z,310
2017-08-26T13:00:15.214Z,280
2017-08-26T13:01:15.214Z,265
2017-08-26T13:02:15.218Z,255
2017-08-26T13:03:14.885Z,240
2017-08-26T13:04:15.191Z,250
2017-08-26T13:05:15.205Z,260
2017-08-26T13:06:14.545Z,260
2017-08-26T13:07:15.187Z,255
2017-08-26T13:08:15.182Z,255
2017-08-26T13:09:15.178Z,330
2017-08-26T13:10:14.535Z,375
2017-08-26T13:11:15.178Z,420
2017-08-26T13:12:15.494Z,405
2017-08-26T13:13:14.840Z,400
2017-08-26T13:14:14.521Z,325
2017-08-26T13:15:14.864Z,310
2017-08-26T13:16:14.823Z,275
2017-08-26T13:17:15.194Z,255
2017-08-26T13:18:14.503Z,230
2017-08-26T13:19:14.502Z,225
2017-08-26T13:20:14.820Z,215
2017-08-26T13:21:14.815Z,205
2017-08-26T13:22:15.220Z,190
2017-08-26T13:23:15.135Z,185
2017-08-26T13:24:14.813Z,190
2017-08-26T13:25:14.793Z,195
2017-08-26T13:26:14.470Z,210
2017-08-26T13:27:15.110Z,245
2017-08-26T13:28:14.779Z,245
2017-08-26T13:29:14.806Z,255
2017-08-26T13:30:14.774Z,240
2017-08-26T13:31:15.086Z,220
2017-08-26T13:32:14.770Z,185
2017-08-26T13:33:14.438Z,175
2017-08-26T13:34:15.083Z,170
2017-08-26T13:35:14.754Z,185
2017-08-26T13:36:15.067Z,205
2017-08-26T13:37:14.749Z,235
2017-08-26T13:38:14.739Z,250
2017-08-26T13:39:15.373Z,250
2017-08-26T13:40:15.055Z,255
2017-08-26T13:41:15.387Z,275
2017-08-26T13:42:14.719Z,285
2017-08-26T13:43:14.714Z,300
2017-08-26T13:44:15.082Z,315
2017-08-26T13:45:15.025Z,315
2017-08-26T13:46:14.374Z,345
2017-08-26T13:47:15.018Z,390
2017-08-26T13:48:14.692Z,460
2017-08-26T13:49:14.056Z,575
2017-08-26T13:50:14.418Z,495
2017-08-26T13:51:14.685Z,520
2017-08-26T13:52:15.037Z,530
2017-08-26T13:53:14.993Z,490
2017-08-26T13:54:14.032Z,495
2017-08-26T13:55:14.715Z,540
2017-08-26T13:56:14.981Z,550
2017-08-26T13:57:14.671Z,570
2017-08-26T13:58:14.324Z,670
2017-08-26T13:59:14.677Z,610
2017-08-26T14:00:15.176Z,615
2017-08-26T14:01:14.641Z,565
2017-08-26T14:02:14.959Z,560
2017-08-26T14:03:15.271Z,480
2017-08-26T14:04:14.331Z,405
2017-08-26T14:05:14.950Z,365
2017-08-26T14:06:14.621Z,395
2017-08-26T14:07:14.647Z,370
2017-08-26T14:08:14.939Z,340
2017-08-26T14:09:14.953Z,330
2017-08-26T14:10:14.616Z,330